Time;durP1;ratioP1;P1;durP2;ratioP2;P2;SDS_P1;SDS_P2;PMS_P1;PMS_P2;Temp;Humidity;BMP_temperature;BMP_pressure;BME280_temperature;BME280_humidity;BME280_pressure;Samples;Min_cycle;Max_cycle;Signal;HPM_P1;HPM_P2
2023/12/27 00:00:39;;;;;;;0.00;0.00;;;;;;;7.60;100.00;100196.78;4827332;29;20062;-79
2023/12/27 00:03:05;;;;;;;0.00;0.00;;;;;;;7.61;100.00;100198.44;4810544;29;20034;-81
2023/12/27 00:05:30;;;;;;;0.00;0.00;;;;;;;7.65;100.00;100201.44;4811283;29;20365;-78
2023/12/27 00:08:09;;;;;;;0.00;0.00;;;;;;;7.83;100.00;100217.50;4824291;29;20031;-81
2023/12/27 00:10:44;;;;;;;0.00;0.00;;;;;;;7.64;100.00;100181.59;4829044;29;20115;-78
2023/12/27 00:13:17;;;;;;;0.00;0.00;;;;;;;7.86;100.00;100206.09;4836740;29;20112;-81
2023/12/27 00:16:01;;;;;;;0.00;0.00;;;;;;;7.69;100.00;100161.78;4838105;29;20054;-78
2023/12/27 00:22:34;;;;;;;0.00;0.00;;;;;;;7.71;100.00;100159.63;4830517;29;20265;-83
2023/12/27 00:39:41;;;;;;;0.00;0.00;;;;;;;7.76;100.00;100143.34;4795137;29;20050;-80
2023/12/27 00:53:24;;;;;;;0.00;0.00;;;;;;;8.17;100.00;100141.06;4734328;30;20658;-80
2023/12/27 01:17:11;;;;;;;0.00;0.00;;;;;;;8.05;100.00;100072.34;4713903;30;20080;-81
2023/12/27 01:30:48;;;;;;;0.10;0.10;;;;;;;8.15;100.00;100028.84;4729560;30;20095;-83
2023/12/27 01:34:12;;;;;;;;;;;;;;;;;;;;;
2023/12/27 01:44:11;;;;;;;;;;;;;;;;;;;;;
2023/12/27 01:47:53;;;;;;;0.00;0.00;;;;;;;8.34;100.00;99995.78;4749103;30;20048;-79
2023/12/27 01:54:55;;;;;;;0.00;0.00;;;;;;;8.41;100.00;99990.91;4743307;30;20033;-80
2023/12/27 02:05:30;;;;;;;0.00;0.00;;;;;;;9.02;100.00;100016.91;4808751;29;20030;-81
2023/12/27 02:12:05;;;;;;;0.00;0.00;;;;;;;8.93;100.00;99958.50;4730711;30;20499;-80
2023/12/27 02:19:06;;;;;;;0.00;0.00;;;;;;;9.28;100.00;99970.63;4804775;29;20451;-80
2023/12/27 02:21:39;;;;;;;0.00;0.00;;;;;;;9.15;100.00;99931.03;4832499;29;20034;-79
2023/12/27 02:34:52;;;;;;;0.00;0.00;;;;;;;9.43;100.00;99932.44;4739445;30;20538;-78
2023/12/27 02:37:30;;;;;;;;;;;;;;;;;;;;;
2023/12/27 02:40:21;;;;;;;0.00;0.00;;;;;;;9.40;100.00;99922.06;4761730;29;20046;-76
2023/12/27 02:42:58;;;;;;;0.00;0.00;;;;;;;9.53;100.00;99932.47;4799191;29;20041;-78
2023/12/27 02:45:26;;;;;;;0.00;0.00;;;;;;;9.32;100.00;99898.06;4820661;29;20041;-78
2023/12/27 02:47:51;;;;;;;0.00;0.00;;;;;;;9.42;100.00;99919.91;4807038;29;20046;-77
2023/12/27 02:50:19;;;;;;;0.00;0.00;;;;;;;9.50;100.00;99933.00;4831121;29;20023;-79
2023/12/27 02:53:13;;;;;;;0.00;0.00;;;;;;;9.38;100.00;99907.91;4818560;29;20397;-79
2023/12/27 02:55:46;;;;;;;0.00;0.00;;;;;;;9.58;100.00;99927.03;4831744;29;20060;-79
2023/12/27 02:58:14;;;;;;;0.00;0.00;;;;;;;9.43;100.00;99900.53;4846588;29;20030;-77
2023/12/27 03:00:57;;;;;;;0.00;0.00;;;;;;;9.50;100.00;99899.44;4831444;29;20079;-80
2023/12/27 03:03:27;;;;;;;0.00;0.00;;;;;;;9.33;100.00;99856.88;4830699;29;20620;-78
2023/12/27 03:05:55;;;;;;;0.00;0.00;;;;;;;9.29;100.00;99824.91;4835783;29;20711;-78
2023/12/27 03:08:31;;;;;;;;;;;;;;;;;;;;;
2023/12/27 03:11:06;;;;;;;0.00;0.00;;;;;;;9.18;100.00;99800.34;4832293;29;20499;-78
2023/12/27 03:13:41;;;;;;;0.00;0.00;;;;;;;9.22;100.00;99806.91;4827290;29;20061;-77
2023/12/27 03:16:18;;;;;;;0.00;0.00;;;;;;;9.33;100.00;99831.47;4835721;29;20077;-78
2023/12/27 03:18:46;;;;;;;0.00;0.00;;;;;;;9.24;100.00;99823.84;4817620;29;20495;-77
2023/12/27 03:21:15;;;;;;;0.00;0.00;;;;;;;9.30;100.00;99840.19;4814056;29;20030;-77
2023/12/27 03:23:48;;;;;;;0.00;0.00;;;;;;;9.35;100.00;99840.22;4822751;29;20426;-77
2023/12/27 03:26:31;;;;;;;;;;;;;;;;;;;;;
2023/12/27 03:28:57;;;;;;;0.00;0.00;;;;;;;9.48;100.00;99864.25;4829702;29;20037;-77
2023/12/27 03:31:28;;;;;;;0.00;0.00;;;;;;;9.39;100.00;99861.22;4827731;29;20129;-76
2023/12/27 03:33:56;;;;;;;0.00;0.00;;;;;;;9.50;100.00;99889.34;4828557;29;20710;-77
2023/12/27 03:36:27;;;;;;;0.00;0.00;;;;;;;9.45;100.00;99867.50;4791979;29;20034;-78
2023/12/27 03:38:56;;;;;;;0.00;0.00;;;;;;;9.37;100.00;99840.75;4803947;29;20058;-78
2023/12/27 03:41:21;;;;;;;0.00;0.00;;;;;;;9.39;100.00;99824.94;4828624;29;20090;-78
2023/12/27 03:43:47;;;;;;;0.00;0.00;;;;;;;9.49;100.00;99822.22;4831777;29;20042;-79
2023/12/27 03:46:41;;;;;;;0.00;0.00;;;;;;;9.42;100.00;99799.84;4841629;29;20032;-79
2023/12/27 03:50:01;;;;;;;;;;;;;;;;;;;;;
2023/12/27 03:53:20;;;;;;;0.00;0.00;;;;;;;9.66;100.00;99804.72;4829584;29;20748;-79
2023/12/27 03:56:02;;;;;;;;;;;;;;;;;;;;;
2023/12/27 03:58:41;;;;;;;;;;;;;;;;;;;;;
2023/12/27 04:02:12;;;;;;;0.00;0.00;;;;;;;9.41;100.00;99751.81;4836262;29;20033;-79
2023/12/27 04:05:05;;;;;;;0.00;0.00;;;;;;;9.39;100.00;99746.63;4821835;29;20045;-77
2023/12/27 04:11:04;;;;;;;;;;;;;;;;;;;;;
2023/12/27 04:13:36;;;;;;;0.00;0.00;;;;;;;9.55;100.00;99752.88;4830911;29;20112;-80
2023/12/27 04:16:26;;;;;;;0.00;0.00;;;;;;;9.65;100.00;99743.03;4828088;29;20034;-79
2023/12/27 04:26:10;;;;;;;;;;;;;;;;;;;;;
2023/12/27 04:33:00;;;;;;;0.00;0.00;;;;;;;9.63;100.00;99739.75;4821220;29;20185;-78
2023/12/27 04:42:35;;;;;;;0.00;0.00;;;;;;;9.84;100.00;99745.97;4754983;30;20212;-78
2023/12/27 04:46:05;;;;;;;0.00;0.00;;;;;;;9.73;100.00;99728.81;4708877;30;20073;-78
2023/12/27 04:48:25;;;;;;;0.00;0.00;;;;;;;9.65;100.00;99732.09;4740241;30;20032;-81
2023/12/27 04:50:50;;;;;;;0.00;0.00;;;;;;;9.51;100.00;99715.50;4727966;30;20048;-80
2023/12/27 04:57:14;;;;;;;0.00;0.00;;;;;;;9.74;100.00;99741.38;4787760;29;20038;-78
2023/12/27 05:03:50;;;;;;;0.00;0.00;;;;;;;9.44;100.00;99667.47;4860671;29;20080;-78
2023/12/27 05:06:26;;;;;;;0.00;0.00;;;;;;;9.60;100.00;99664.69;4759869;30;20046;-79
2023/12/27 05:08:51;;;;;;;0.00;0.00;;;;;;;9.52;100.00;99662.53;4746714;30;20127;-79
2023/12/27 05:55:51;;;;;;;0.00;0.00;;;;;;;9.51;100.00;99538.91;4764526;29;20492;-81
2023/12/27 05:59:41;;;;;;;;;;;;;;;;;;;;;
2023/12/27 06:02:12;;;;;;;0.00;0.00;;;;;;;9.74;100.00;99566.66;4748290;30;20064;-78
2023/12/27 06:05:26;;;;;;;0.00;0.00;;;;;;;9.89;100.00;99593.84;4746009;30;20032;-79
2023/12/27 06:11:58;;;;;;;0.00;0.00;;;;;;;9.92;100.00;99576.91;4763881;29;20038;-78
2023/12/27 06:25:52;;;;;;;0.00;0.00;;;;;;;9.73;100.00;99507.66;4771346;29;20035;-78
2023/12/27 06:28:18;;;;;;;0.00;0.00;;;;;;;9.82;100.00;99519.63;4786491;29;20050;-79
2023/12/27 06:34:00;;;;;;;0.00;0.00;;;;;;;9.75;100.00;99486.34;4836475;29;20053;-78
2023/12/27 06:36:32;;;;;;;0.00;0.00;;;;;;;9.93;100.00;99518.44;4830149;29;20089;-80
2023/12/27 06:46:55;;;;;;;;;;;;;;;;;;;;;
2023/12/27 06:56:46;;;;;;;0.00;0.00;;;;;;;10.02;100.00;99490.53;4673563;30;20463;-78
2023/12/27 07:02:38;;;;;;;0.00;0.00;;;;;;;9.80;100.00;99437.19;4694219;30;20041;-79
2023/12/27 07:09:05;;;;;;;0.00;0.00;;;;;;;9.92;100.00;99475.84;4724835;30;20489;-79
2023/12/27 07:12:16;;;;;;;0.00;0.00;;;;;;;9.76;100.00;99427.94;4678347;30;20076;-77
2023/12/27 07:19:08;;;;;;;;;;;;;;;;;;;;;
2023/12/27 07:25:31;;;;;;;0.00;0.00;;;;;;;9.68;100.00;99431.25;4678472;30;20034;-80
2023/12/27 07:46:06;;;;;;;;;;;;;;;;;;;;;
2023/12/27 07:49:22;;;;;;;0.00;0.00;;;;;;;9.66;100.00;99444.38;4712537;30;20053;-80
2023/12/27 07:56:12;;;;;;;0.00;0.00;;;;;;;9.59;100.00;99407.31;4779329;29;20062;-80
2023/12/27 07:59:34;;;;;;;;;;;;;;;;;;;;;
2023/12/27 08:02:00;;;;;;;0.00;0.00;;;;;;;9.84;100.00;99457.38;4688291;30;20048;-77
2023/12/27 08:04:34;;;;;;;0.00;0.00;;;;;;;9.71;100.00;99425.22;4783110;29;20030;-77
2023/12/27 08:10:50;;;;;;;0.10;0.10;;;;;;;9.79;100.00;99425.44;4833185;29;20184;-79
2023/12/27 08:13:21;;;;;;;0.00;0.00;;;;;;;9.89;100.00;99449.13;4816256;29;20153;-79
2023/12/27 08:15:46;;;;;;;0.00;0.00;;;;;;;9.70;100.00;99418.16;4818085;29;20065;-77
2023/12/27 08:18:15;;;;;;;0.00;0.00;;;;;;;9.69;100.00;99400.94;4825558;29;20026;-76
2023/12/27 08:21:04;;;;;;;0.00;0.00;;;;;;;9.75;100.00;99409.91;4829813;29;20034;-79
2023/12/27 08:23:55;;;;;;;0.00;0.00;;;;;;;9.72;100.00;99405.00;4830076;29;20030;-76
2023/12/27 08:26:20;;;;;;;0.00;0.00;;;;;;;9.92;100.00;99434.88;4819835;29;20034;-75
2023/12/27 08:28:46;;;;;;;0.00;0.00;;;;;;;9.70;100.00;99396.31;4838752;29;20026;-81
2023/12/27 08:31:35;;;;;;;0.00;0.00;;;;;;;9.63;100.00;99371.25;4833166;29;20026;-77
2023/12/27 08:34:14;;;;;;;0.00;0.00;;;;;;;9.75;100.00;99399.81;4838235;29;20546;-78
2023/12/27 08:37:15;;;;;;;;;;;;;;;;;;;;;
2023/12/27 08:40:13;;;;;;;0.00;0.00;;;;;;;9.95;100.00;99423.38;4830189;29;20509;-77
2023/12/27 08:42:38;;;;;;;0.00;0.00;;;;;;;9.78;100.00;99387.50;4809715;29;20088;-78
2023/12/27 08:48:51;;;;;;;;;;;;;;;;;;;;;
2023/12/27 08:51:48;;;;;;;0.00;0.00;;;;;;;9.72;100.00;99372.25;4824631;29;20363;-77
2023/12/27 08:54:23;;;;;;;0.00;0.00;;;;;;;9.96;100.00;99405.09;4789707;29;20038;-78
2023/12/27 09:00:15;;;;;;;;;;;;;;;9.98;100.00;99402.09;4808653;29;20034;-78
2023/12/27 09:02:47;;;;;;;0.00;0.00;;;;;;;9.97;100.00;99406.72;4806818;29;20394;-78
2023/12/27 09:05:16;;;;;;;0.00;0.00;;;;;;;9.89;100.00;99380.84;4799850;29;20062;-78
2023/12/27 09:11:10;;;;;;;0.00;0.00;;;;;;;9.81;100.00;99345.16;4798712;29;20046;-79
2023/12/27 09:13:59;;;;;;;0.00;0.00;;;;;;;9.78;100.00;99322.78;4814183;29;20080;-78
2023/12/27 09:23:15;;;;;;;0.00;0.00;;;;;;;9.82;100.00;99333.94;4830308;29;20038;-79
2023/12/27 09:26:35;;;;;;;0.00;0.00;;;;;;;9.72;100.00;99309.47;4835391;29;20068;-77
2023/12/27 09:33:15;;;;;;;0.00;0.00;;;;;;;10.02;100.00;99345.78;4847821;29;20114;-78
2023/12/27 09:35:45;;;;;;;0.00;0.00;;;;;;;9.79;100.00;99309.94;4772316;29;20043;-78
2023/12/27 09:38:38;;;;;;;;;;;;;;;;;;;;;
2023/12/27 09:41:48;;;;;;;;;;;;;;;;;;;;;
2023/12/27 09:44:27;;;;;;;0.00;0.00;;;;;;;9.94;100.00;99326.19;4773414;29;20055;-78
2023/12/27 09:47:05;;;;;;;;;;;;;;;;;;;;;
2023/12/27 09:49:33;;;;;;;0.00;0.00;;;;;;;9.82;100.00;99301.19;4822709;29;20049;-77
2023/12/27 09:52:02;;;;;;;0.00;0.00;;;;;;;9.98;100.00;99317.41;4800473;29;21103;-79
2023/12/27 09:54:28;;;;;;;0.00;0.00;;;;;;;9.78;100.00;99273.66;4817937;29;20047;-79
2023/12/27 09:57:04;;;;;;;0.00;0.00;;;;;;;9.92;100.00;99295.63;4784308;29;20046;-77
2023/12/27 09:59:38;;;;;;;0.00;0.00;;;;;;;9.87;100.00;99298.41;4802426;29;20038;-79
2023/12/27 10:02:16;;;;;;;0.00;0.00;;;;;;;9.97;100.00;99289.28;4790991;29;20066;-78
2023/12/27 10:05:17;;;;;;;;;;;;;;;;;;;;;
2023/12/27 10:07:44;;;;;;;0.10;0.10;;;;;;;9.92;100.00;99279.22;4834121;29;20073;-77
2023/12/27 10:10:27;;;;;;;0.00;0.00;;;;;;;9.86;100.00;99255.00;4837967;29;20121;-77
2023/12/27 10:13:22;;;;;;;0.00;0.00;;;;;;;9.96;100.00;99258.44;4831253;29;20098;-77
2023/12/27 10:15:44;;;;;;;0.00;0.00;;;;;;;9.84;100.00;99233.47;4832782;29;20501;-77
2023/12/27 10:18:09;;;;;;;0.00;0.00;;;;;;;9.96;100.00;99246.72;4833573;29;20057;-77
2023/12/27 10:20:48;;;;;;;;;;;;;;;;;;;;;
2023/12/27 10:23:16;;;;;;;0.00;0.00;;;;;;;9.87;100.00;99238.34;4821322;29;20034;-77
2023/12/27 10:25:59;;;;;;;0.00;0.00;;;;;;;9.96;100.00;99235.78;4818411;29;20039;-78
2023/12/27 10:28:27;;;;;;;0.00;0.00;;;;;;;10.01;100.00;99248.56;4831940;29;20032;-78
2023/12/27 10:30:53;;;;;;;0.00;0.00;;;;;;;9.92;100.00;99221.88;4826733;29;20091;-78
2023/12/27 10:33:20;;;;;;;0.00;0.00;;;;;;;9.91;100.00;99216.72;4817729;29;20050;-77
2023/12/27 10:36:04;;;;;;;;;;;;;;;;;;;;;
2023/12/27 10:38:40;;;;;;;;;;;;;;;;;;;;;
2023/12/27 10:41:24;;;;;;;0.00;0.00;;;;;;;9.87;100.00;99221.97;4834352;29;20048;-77
2023/12/27 10:43:53;;;;;;;0.00;0.00;;;;;;;9.90;100.00;99215.91;4825925;29;20073;-79
2023/12/27 10:46:21;;;;;;;0.00;0.00;;;;;;;9.83;100.00;99207.25;4829820;29;20034;-78
2023/12/27 10:48:52;;;;;;;0.00;0.00;;;;;;;9.82;100.00;99183.78;4826050;29;20447;-78
2023/12/27 10:51:26;;;;;;;0.00;0.00;;;;;;;9.91;100.00;99212.06;4825599;29;20030;-77
2023/12/27 10:54:05;;;;;;;0.00;0.00;;;;;;;9.73;100.00;99166.41;4828391;29;20087;-79
2023/12/27 10:56:44;;;;;;;0.00;0.00;;;;;;;9.94;100.00;99211.50;4817849;29;20034;-77
2023/12/27 10:59:28;;;;;;;0.00;0.00;;;;;;;9.70;100.00;99170.53;4831896;29;20087;-76
2023/12/27 11:01:54;;;;;;;;;;;;;;;10.07;100.00;99241.94;4828343;29;20041;-77
2023/12/27 11:04:25;;;;;;;0.00;0.00;;;;;;;9.86;100.00;99175.84;4834702;29;19912;-77
2023/12/27 11:07:05;;;;;;;0.00;0.00;;;;;;;9.94;100.00;99189.66;4831582;29;20110;-78
2023/12/27 11:09:52;;;;;;;0.00;0.00;;;;;;;9.99;100.00;99185.19;4842229;29;20054;-77
2023/12/27 11:12:28;;;;;;;0.00;0.00;;;;;;;9.95;100.00;99163.16;4816537;29;20216;-77
2023/12/27 11:14:56;;;;;;;0.00;0.00;;;;;;;9.99;100.00;99177.84;4823395;29;20026;-77
2023/12/27 11:17:24;;;;;;;0.00;0.00;;;;;;;9.93;100.00;99148.97;4832162;29;20037;-76
2023/12/27 11:19:52;;;;;;;0.00;0.00;;;;;;;10.06;100.00;99158.34;4835294;29;20034;-77
2023/12/27 11:22:17;;;;;;;0.00;0.00;;;;;;;10.10;100.00;99132.91;4831653;29;20034;-77
2023/12/27 11:24:43;;;;;;;0.03;0.03;;;;;;;10.02;100.00;99132.75;4821354;29;20031;-78
2023/12/27 11:27:12;;;;;;;0.00;0.00;;;;;;;10.06;100.00;99129.13;4837615;29;20031;-76
2023/12/27 11:29:56;;;;;;;;;;;;;;;;;;;;;
2023/12/27 11:32:44;;;;;;;0.00;0.00;;;;;;;10.05;100.00;99113.84;4835811;29;20054;-78
2023/12/27 11:35:52;;;;;;;;;;;;;;;;;;;;;
2023/12/27 11:38:46;;;;;;;;;;;;;;;;;;;;;
2023/12/27 11:41:29;;;;;;;0.00;0.00;;;;;;;10.00;100.00;99078.41;4832755;29;20102;-79
2023/12/27 11:44:03;;;;;;;0.10;0.10;;;;;;;10.00;100.00;99083.06;4816901;29;20050;-77
2023/12/27 11:46:35;;;;;;;0.00;0.00;;;;;;;10.06;100.00;99070.94;4829534;29;21602;-80
2023/12/27 11:49:04;;;;;;;0.00;0.00;;;;;;;9.93;100.00;99062.41;4848625;29;20110;-79
2023/12/27 11:51:45;;;;;;;0.00;0.00;;;;;;;9.85;100.00;99033.00;4829741;29;20074;-77
2023/12/27 11:54:22;;;;;;;0.00;0.00;;;;;;;9.89;100.00;99050.44;4856702;29;20030;-80
2023/12/27 11:56:56;;;;;;;0.00;0.00;;;;;;;9.94;100.00;99063.19;4830368;29;20065;-79
2023/12/27 11:59:23;;;;;;;0.00;0.00;;;;;;;9.92;100.00;99054.50;4819625;29;20113;-78
2023/12/27 12:01:52;;;;;;;0.00;0.00;;;;;;;10.06;100.00;99069.06;4820809;29;20426;-77
2023/12/27 12:04:32;;;;;;;0.00;0.00;;;;;;;10.07;100.00;99067.13;4820544;29;20034;-78
2023/12/27 12:07:34;;;;;;;0.00;0.00;;;;;;;10.08;100.00;99080.47;4835150;29;20678;-75
2023/12/27 12:10:00;;;;;;;0.00;0.00;;;;;;;10.02;100.00;99026.25;4833310;29;20034;-78
2023/12/27 12:12:25;;;;;;;0.00;0.00;;;;;;;10.02;100.00;99009.84;4824020;29;20496;-76
2023/12/27 12:15:03;;;;;;;0.00;0.00;;;;;;;10.02;100.00;98998.94;4832439;29;20041;-77
2023/12/27 12:17:30;;;;;;;0.00;0.00;;;;;;;10.15;100.00;99003.63;4819497;29;20041;-76
2023/12/27 12:19:56;;;;;;;0.00;0.00;;;;;;;10.10;100.00;98990.88;4841230;29;20541;-76
2023/12/27 12:22:26;;;;;;;0.00;0.00;;;;;;;10.08;100.00;98973.16;4836934;29;20030;-77
2023/12/27 12:24:51;;;;;;;0.00;0.00;;;;;;;10.04;100.00;98975.66;4837840;29;20086;-78
2023/12/27 12:27:23;;;;;;;0.00;0.00;;;;;;;10.12;100.00;98987.84;4823170;29;20038;-77
2023/12/27 12:29:48;;;;;;;0.00;0.00;;;;;;;10.08;100.00;98943.13;4821933;29;20034;-78
2023/12/27 12:32:14;;;;;;;0.00;0.00;;;;;;;10.08;100.00;98986.81;4832816;29;20057;-78
2023/12/27 12:34:42;;;;;;;0.00;0.00;;;;;;;9.96;100.00;98952.56;4817919;29;20060;-78
2023/12/27 12:37:13;;;;;;;0.00;0.00;;;;;;;9.81;100.00;98928.22;4835820;29;20363;-77
2023/12/27 12:39:41;;;;;;;0.00;0.00;;;;;;;9.88;100.00;98928.66;4818549;29;20062;-77
2023/12/27 12:42:25;;;;;;;0.00;0.00;;;;;;;9.89;100.00;98957.59;4837006;29;20031;-76
2023/12/27 12:45:00;;;;;;;0.00;0.00;;;;;;;9.95;100.00;98929.09;4829684;29;20050;-75
2023/12/27 12:47:26;;;;;;;0.00;0.00;;;;;;;9.91;100.00;98878.91;4839971;29;20811;-77
2023/12/27 12:49:52;;;;;;;0.00;0.00;;;;;;;10.16;100.00;98906.09;4830239;29;20026;-76
2023/12/27 12:52:19;;;;;;;0.00;0.00;;;;;;;10.00;100.00;98900.88;4839616;29;20094;-74
2023/12/27 12:54:48;;;;;;;0.00;0.00;;;;;;;9.84;100.00;98878.53;4836635;29;20544;-75
2023/12/27 12:57:14;;;;;;;0.00;0.00;;;;;;;9.83;100.00;98876.88;4824613;29;20041;-75
2023/12/27 12:59:42;;;;;;;0.00;0.00;;;;;;;10.13;100.00;98858.34;4832153;29;20034;-75
2023/12/27 13:02:08;;;;;;;0.00;0.00;;;;;;;10.02;100.00;98870.56;4829698;29;20471;-77
2023/12/27 13:04:33;;;;;;;0.00;0.00;;;;;;;10.12;100.00;98892.25;4822467;29;20033;-77
2023/12/27 13:07:04;;;;;;;0.00;0.00;;;;;;;9.96;100.00;98826.97;4842175;29;20481;-75
2023/12/27 13:09:30;;;;;;;0.00;0.00;;;;;;;10.06;100.00;98841.53;4832111;29;20108;-77
2023/12/27 13:11:56;;;;;;;0.00;0.00;;;;;;;10.13;100.00;98880.19;4828091;29;20517;-77
2023/12/27 13:14:22;;;;;;;0.00;0.00;;;;;;;10.13;100.00;98866.53;4819593;29;20393;-77
2023/12/27 13:16:50;;;;;;;0.00;0.00;;;;;;;9.92;100.00;98804.09;4805917;29;20046;-78
2023/12/27 13:19:18;;;;;;;0.00;0.00;;;;;;;10.04;100.00;98802.81;4816339;29;20034;-77
2023/12/27 13:21:44;;;;;;;0.00;0.00;;;;;;;10.23;100.00;98860.88;4810911;29;20095;-75
2023/12/27 13:24:09;;;;;;;0.00;0.00;;;;;;;10.08;100.00;98801.88;4817154;29;20026;-75
2023/12/27 13:26:37;;;;;;;0.00;0.00;;;;;;;10.03;100.00;98793.81;4832483;29;20022;-76
2023/12/27 13:29:03;;;;;;;0.00;0.00;;;;;;;10.18;100.00;98805.53;4846455;29;20034;-74
2023/12/27 13:31:29;;;;;;;0.00;0.00;;;;;;;10.22;100.00;98796.44;4813689;29;20041;-75
2023/12/27 13:33:54;;;;;;;0.00;0.00;;;;;;;10.07;100.00;98783.06;4835366;29;20473;-75
2023/12/27 13:36:19;;;;;;;0.00;0.00;;;;;;;10.10;100.00;98768.81;4828007;29;20030;-75
2023/12/27 13:38:45;;;;;;;0.00;0.00;;;;;;;10.29;100.00;98798.75;4836296;29;20046;-75
2023/12/27 13:41:10;;;;;;;0.00;0.00;;;;;;;10.25;100.00;98768.50;4813438;29;20462;-76
2023/12/27 13:43:36;;;;;;;0.00;0.00;;;;;;;10.27;100.00;98763.53;4790473;29;20042;-77
2023/12/27 13:46:05;;;;;;;0.00;0.00;;;;;;;10.29;100.00;98796.84;4836557;29;20473;-74
2023/12/27 13:48:32;;;;;;;0.00;0.00;;;;;;;10.23;100.00;98764.47;4832625;29;20029;-76
2023/12/27 13:50:57;;;;;;;0.00;0.00;;;;;;;10.02;100.00;98706.72;4826670;29;20392;-75
2023/12/27 13:53:23;;;;;;;0.00;0.00;;;;;;;10.04;100.00;98707.22;4837920;29;20042;-74
2023/12/27 13:55:48;;;;;;;0.00;0.00;;;;;;;10.19;100.00;98709.66;4828687;29;20045;-74
2023/12/27 13:58:14;;;;;;;0.00;0.00;;;;;;;10.29;100.00;98692.22;4834933;29;20034;-73
2023/12/27 14:00:39;;;;;;;0.00;0.00;;;;;;;10.19;100.00;98693.25;4818416;29;20402;-74
2023/12/27 14:03:05;;;;;;;0.00;0.00;;;;;;;10.25;100.00;98724.81;4818270;29;20771;-75
2023/12/27 14:05:32;;;;;;;0.00;0.00;;;;;;;10.18;100.00;98746.25;4800183;29;20030;-75
2023/12/27 14:07:59;;;;;;;0.00;0.00;;;;;;;10.25;100.00;98713.88;4834944;29;20041;-76
2023/12/27 14:10:25;;;;;;;0.00;0.00;;;;;;;10.33;100.00;98703.34;4833965;29;20050;-75
2023/12/27 14:12:55;;;;;;;0.00;0.00;;;;;;;10.27;100.00;98681.59;4829282;29;20125;-74
2023/12/27 14:15:21;;;;;;;0.00;0.00;;;;;;;10.22;100.00;98659.84;4813992;29;20038;-74
2023/12/27 14:17:46;;;;;;;0.00;0.00;;;;;;;10.36;100.00;98670.78;4841941;29;20030;-74
2023/12/27 14:20:14;;;;;;;0.00;0.00;;;;;;;10.27;100.00;98648.81;4817413;29;20038;-77
2023/12/27 14:22:43;;;;;;;0.00;0.00;;;;;;;10.23;100.00;98639.59;4826981;29;20042;-76
2023/12/27 14:25:10;;;;;;;0.00;0.00;;;;;;;10.25;100.00;98636.56;4808035;29;20470;-75
2023/12/27 14:27:39;;;;;;;0.00;0.00;;;;;;;10.34;100.00;98666.72;4831728;29;20391;-75
2023/12/27 14:30:06;;;;;;;0.10;0.10;;;;;;;10.38;100.00;98662.25;4823088;29;20021;-76
2023/12/27 14:32:35;;;;;;;0.00;0.00;;;;;;;10.34;100.00;98661.25;4798196;29;20150;-75
2023/12/27 14:35:03;;;;;;;0.00;0.00;;;;;;;10.34;100.00;98640.22;4806145;29;20038;-75
2023/12/27 14:37:31;;;;;;;0.00;0.00;;;;;;;10.27;100.00;98645.28;4825212;29;20496;-77
2023/12/27 14:39:57;;;;;;;0.00;0.00;;;;;;;10.42;100.00;98668.75;4823928;29;20617;-74
2023/12/27 14:42:23;;;;;;;0.00;0.00;;;;;;;10.33;100.00;98681.50;4812713;29;20125;-74
2023/12/27 14:44:48;;;;;;;0.00;0.00;;;;;;;10.37;100.00;98663.41;4828289;29;20374;-75
2023/12/27 14:47:16;;;;;;;0.00;0.00;;;;;;;10.37;100.00;98660.66;4819232;29;20401;-77
2023/12/27 14:49:41;;;;;;;0.00;0.00;;;;;;;10.44;100.00;98650.09;4813917;29;20033;-76
2023/12/27 14:52:06;;;;;;;0.00;0.00;;;;;;;10.36;100.00;98656.31;4824583;29;20022;-76
2023/12/27 14:54:39;;;;;;;0.00;0.00;;;;;;;10.36;100.00;98637.97;4830574;29;20621;-75
2023/12/27 14:57:04;;;;;;;0.00;0.00;;;;;;;10.40;100.00;98638.19;4817275;29;20045;-76
2023/12/27 14:59:48;;;;;;;0.00;0.00;;;;;;;10.34;100.00;98623.84;4822162;29;20042;-76
2023/12/27 15:02:26;;;;;;;;;;;;;;;;;;;;;
2023/12/27 15:05:53;;;;;;;0.00;0.00;;;;;;;10.23;100.00;98672.38;4830195;29;20014;-75
2023/12/27 15:08:29;;;;;;;0.00;0.00;;;;;;;10.45;100.00;98693.53;4824939;29;20041;-76
2023/12/27 15:11:04;;;;;;;;;;;;;;;;;;;;;
2023/12/27 15:14:00;;;;;;;;;;;;;;;;;;;;;
2023/12/27 15:16:26;;;;;;;0.00;0.00;;;;;;;9.94;100.00;98692.66;4834157;29;20658;-74
2023/12/27 15:18:51;;;;;;;0.00;0.00;;;;;;;10.10;100.00;98760.63;4815071;29;20035;-72
2023/12/27 15:21:22;;;;;;;0.00;0.00;;;;;;;9.86;100.00;98723.41;4829429;29;20030;-74
2023/12/27 15:23:48;;;;;;;0.00;0.00;;;;;;;9.85;100.00;98751.00;4814794;29;20537;-74
2023/12/27 15:26:20;;;;;;;0.00;0.00;;;;;;;9.58;100.00;98734.28;4817508;29;20030;-75
2023/12/27 15:28:47;;;;;;;0.00;0.00;;;;;;;9.59;100.00;98733.19;4828472;29;20042;-74
2023/12/27 15:31:32;;;;;;;;;;;;;;;;;;;;;
2023/12/27 15:33:58;;;;;;;0.05;0.05;;;;;;;9.40;100.00;98754.25;4827329;29;20057;-74
2023/12/27 15:36:32;;;;;;;0.00;0.00;;;;;;;9.60;100.00;98766.72;4824779;29;23672;-74
2023/12/27 15:38:57;;;;;;;0.00;0.00;;;;;;;9.72;100.00;98782.63;4834782;29;20089;-74
2023/12/27 15:41:24;;;;;;;0.00;0.00;;;;;;;9.69;100.00;98772.31;4797610;29;20038;-74
2023/12/27 15:43:52;;;;;;;0.00;0.00;;;;;;;9.59;100.00;98776.03;4824453;29;20058;-74
2023/12/27 15:46:21;;;;;;;0.00;0.00;;;;;;;9.68;100.00;98781.59;4834627;29;20042;-77
2023/12/27 15:48:48;;;;;;;0.00;0.00;;;;;;;9.67;100.00;98780.00;4844173;29;20041;-74
2023/12/27 15:51:40;;;;;;;0.00;0.00;;;;;;;9.46;100.00;98769.41;4824292;29;20061;-75
2023/12/27 15:54:08;;;;;;;0.00;0.00;;;;;;;9.66;100.00;98802.94;4838302;29;20500;-74
2023/12/27 15:56:37;;;;;;;0.00;0.00;;;;;;;9.55;100.00;98794.94;4818776;29;20038;-75
2023/12/27 15:59:04;;;;;;;0.00;0.00;;;;;;;9.58;100.00;98788.06;4833242;29;20034;-75
2023/12/27 16:01:33;;;;;;;0.00;0.00;;;;;;;9.67;100.00;98799.09;4819789;29;20046;-75
2023/12/27 16:04:00;;;;;;;0.00;0.00;;;;;;;9.64;100.00;98786.03;4819701;29;20091;-75
2023/12/27 16:06:36;;;;;;;0.00;0.00;;;;;;;9.66;100.00;98794.75;4828724;29;20091;-76
2023/12/27 16:09:04;;;;;;;0.00;0.00;;;;;;;9.68;100.00;98811.63;4826531;29;20076;-74
2023/12/27 16:11:32;;;;;;;0.00;0.00;;;;;;;9.71;100.00;98821.94;4830589;29;20475;-74
2023/12/27 16:13:58;;;;;;;0.00;0.00;;;;;;;9.69;100.00;98829.63;4818161;29;20040;-76
2023/12/27 16:16:46;;;;;;;0.00;0.00;;;;;;;9.26;100.00;98778.78;4830340;29;20041;-75
2023/12/27 16:19:14;;;;;;;0.00;0.00;;;;;;;9.28;100.00;98794.84;4825630;29;21295;-76
2023/12/27 16:21:51;;;;;;;0.00;0.00;;;;;;;9.24;100.00;98802.78;4831922;29;20116;-75
2023/12/27 16:24:27;;;;;;;;;;;;;;;;;;;;;
2023/12/27 16:26:55;;;;;;;0.00;0.00;;;;;;;9.25;100.00;98813.41;4827425;29;20030;-75
2023/12/27 16:29:41;;;;;;;0.00;0.00;;;;;;;9.24;100.00;98800.06;4815824;29;20409;-76
2023/12/27 16:32:16;;;;;;;;;;;;;;;;;;;;;
2023/12/27 16:34:45;;;;;;;0.00;0.00;;;;;;;9.10;100.00;98794.56;4825985;29;20035;-76
2023/12/27 16:37:18;;;;;;;0.00;0.00;;;;;;;9.04;100.00;98812.91;4832913;29;20113;-73
2023/12/27 16:39:43;;;;;;;0.00;0.00;;;;;;;9.05;100.00;98821.88;4834665;29;20043;-78
2023/12/27 16:42:09;;;;;;;0.00;0.00;;;;;;;8.93;100.00;98805.19;4822717;29;20435;-77
2023/12/27 16:45:00;;;;;;;0.00;0.00;;;;;;;8.90;100.00;98807.38;4814067;29;20073;-78
2023/12/27 16:47:36;;;;;;;0.00;0.00;;;;;;;8.89;100.00;98811.22;4831890;29;20397;-78
2023/12/27 16:50:12;;;;;;;0.00;0.00;;;;;;;8.68;100.00;98788.06;4818143;29;20161;-75
2023/12/27 16:52:48;;;;;;;;;;;;;;;;;;;;;
2023/12/27 16:55:13;;;;;;;0.10;0.10;;;;;;;8.94;100.00;98834.06;4818969;29;20027;-76
2023/12/27 16:57:39;;;;;;;0.00;0.00;;;;;;;9.01;100.00;98845.41;4817300;29;20032;-75
2023/12/27 17:00:17;;;;;;;0.00;0.00;;;;;;;9.10;100.00;98870.91;4826311;29;20035;-76
2023/12/27 17:02:43;;;;;;;0.00;0.00;;;;;;;9.08;100.00;98863.03;4815314;29;20039;-76
2023/12/27 17:05:11;;;;;;;0.00;0.00;;;;;;;8.83;100.00;98839.63;4814666;29;20071;-76
2023/12/27 17:07:44;;;;;;;0.00;0.00;;;;;;;8.78;100.00;98853.34;4836854;29;21492;-75
2023/12/27 17:10:11;;;;;;;0.00;0.00;;;;;;;8.62;100.00;98846.47;4835864;29;20042;-75
2023/12/27 17:12:41;;;;;;;0.10;0.10;;;;;;;8.59;100.00;98866.13;4816179;29;20038;-76
2023/12/27 17:15:18;;;;;;;;;;;;;;;;;;;;;
2023/12/27 17:17:44;;;;;;;0.00;0.00;;;;;;;8.23;100.00;98840.06;4818593;29;20036;-75
2023/12/27 17:20:25;;;;;;;0.00;0.00;;;;;;;8.25;100.00;98867.00;4829862;29;20042;-76
2023/12/27 17:22:53;;;;;;;0.00;0.00;;;;;;;8.24;100.00;98870.84;4800831;29;20108;-75
2023/12/27 17:25:27;;;;;;;0.00;0.00;;;;;;;8.16;100.00;98875.81;4840233;29;20035;-76